sensor_id;sensor_type;location;lat;lon;timestamp;temperature;humidity
27870;DHT22;15225;50.730;4.244;2024-01-15T16:46:02;2.10;47.60
27870;DHT22;15225;50.730;4.244;2024-01-15T16:48:28;2.00;50.20
27870;DHT22;15225;50.730;4.244;2024-01-15T16:50:54;2.30;51.20
27870;DHT22;15225;50.730;4.244;2024-01-15T16:53:20;2.80;39.90
27870;DHT22;15225;50.730;4.244;2024-01-15T16:55:46;3.30;19.80
27870;DHT22;15225;50.730;4.244;2024-01-15T16:58:12;3.80;1.00
27870;DHT22;15225;50.730;4.244;2024-01-15T17:00:40;4.10;1.00
27870;DHT22;15225;50.730;4.244;2024-01-15T17:03:09;4.30;1.00
27870;DHT22;15225;50.730;4.244;2024-01-15T17:05:36;4.40;1.00
27870;DHT22;15225;50.730;4.244;2024-01-15T17:08:02;4.50;1.00
27870;DHT22;15225;50.730;4.244;2024-01-15T17:10:28;4.60;1.00
27870;DHT22;15225;50.730;4.244;2024-01-15T17:12:54;4.60;1.00
27870;DHT22;15225;50.730;4.244;2024-01-15T17:15:20;4.50;1.00
27870;DHT22;15225;50.730;4.244;2024-01-15T17:17:46;4.70;1.00
27870;DHT22;15225;50.730;4.244;2024-01-15T17:20:12;4.40;1.00
27870;DHT22;15225;50.730;4.244;2024-01-15T17:22:38;4.40;1.00
27870;DHT22;15225;50.730;4.244;2024-01-15T17:25:05;4.60;99.90
27870;DHT22;15225;50.730;4.244;2024-01-15T17:27:31;4.70;99.90
27870;DHT22;15225;50.730;4.244;2024-01-15T17:29:57;4.90;99.90
27870;DHT22;15225;50.730;4.244;2024-01-15T17:32:23;5.10;45.80
27870;DHT22;15225;50.730;4.244;2024-01-15T17:34:49;4.90;99.90
27870;DHT22;15225;50.730;4.244;2024-01-15T17:37:14;4.90;99.90
27870;DHT22;15225;50.730;4.244;2024-01-15T17:39:40;5.20;17.20
27870;DHT22;15225;50.730;4.244;2024-01-15T17:42:08;5.30;99.90
27870;DHT22;15225;50.730;4.244;2024-01-15T17:44:34;5.10;99.90
27870;DHT22;15225;50.730;4.244;2024-01-15T17:47:00;5.10;99.90
27870;DHT22;15225;50.730;4.244;2024-01-15T17:49:27;4.90;1.00
27870;DHT22;15225;50.730;4.244;2024-01-15T17:51:53;5.10;99.90
27870;DHT22;15225;50.730;4.244;2024-01-15T17:54:18;4.90;1.00
27870;DHT22;15225;50.730;4.244;2024-01-15T17:56:44;4.90;99.90
27870;DHT22;15225;50.730;4.244;2024-01-15T17:59:10;4.80;99.90
27870;DHT22;15225;50.730;4.244;2024-01-15T18:01:38;4.60;99.90
27870;DHT22;15225;50.730;4.244;2024-01-15T18:04:08;4.60;99.90
27870;DHT22;15225;50.730;4.244;2024-01-15T18:06:34;4.70;1.00
27870;DHT22;15225;50.730;4.244;2024-01-15T18:09:01;4.80;1.00
27870;DHT22;15225;50.730;4.244;2024-01-15T18:11:27;4.90;1.00
27870;DHT22;15225;50.730;4.244;2024-01-15T18:13:53;5.20;99.90
27870;DHT22;15225;50.730;4.244;2024-01-15T18:16:19;5.30;1.00
27870;DHT22;15225;50.730;4.244;2024-01-15T18:18:52;5.20;1.00
27870;DHT22;15225;50.730;4.244;2024-01-15T18:21:19;5.20;99.90
27870;DHT22;15225;50.730;4.244;2024-01-15T18:23:45;4.80;99.90
27870;DHT22;15225;50.730;4.244;2024-01-15T18:26:10;4.70;99.90
27870;DHT22;15225;50.730;4.244;2024-01-15T18:28:36;4.60;99.90
27870;DHT22;15225;50.730;4.244;2024-01-15T18:31:02;4.60;99.90
27870;DHT22;15225;50.730;4.244;2024-01-15T18:33:28;4.60;1.00
27870;DHT22;15225;50.730;4.244;2024-01-15T18:35:54;4.50;1.00
27870;DHT22;15225;50.730;4.244;2024-01-15T18:38:20;4.30;56.30
27870;DHT22;15225;50.730;4.244;2024-01-15T18:40:46;4.10;99.90
27870;DHT22;15225;50.730;4.244;2024-01-15T18:43:12;4.20;99.90
27870;DHT22;15225;50.730;4.244;2024-01-15T18:45:39;4.20;99.90
27870;DHT22;15225;50.730;4.244;2024-01-15T18:48:05;4.30;99.90
27870;DHT22;15225;50.730;4.244;2024-01-15T18:50:32;4.40;40.90
27870;DHT22;15225;50.730;4.244;2024-01-15T18:52:57;4.70;99.90
27870;DHT22;15225;50.730;4.244;2024-01-15T18:55:24;4.70;1.00
27870;DHT22;15225;50.730;4.244;2024-01-15T18:57:50;4.80;99.90
27870;DHT22;15225;50.730;4.244;2024-01-15T19:00:16;4.60;99.90
27870;DHT22;15225;50.730;4.244;2024-01-15T19:02:44;4.60;99.90
27870;DHT22;15225;50.730;4.244;2024-01-15T19:05:10;4.50;99.90
27870;DHT22;15225;50.730;4.244;2024-01-15T19:07:37;4.50;1.00
27870;DHT22;15225;50.730;4.244;2024-01-15T19:10:05;4.40;1.00
27870;DHT22;15225;50.730;4.244;2024-01-15T19:12:31;4.20;99.90
27870;DHT22;15225;50.730;4.244;2024-01-15T19:14:57;4.20;99.90
27870;DHT22;15225;50.730;4.244;2024-01-15T19:17:23;4.40;33.10
27870;DHT22;15225;50.730;4.244;2024-01-15T19:19:49;4.40;1.00
27870;DHT22;15225;50.730;4.244;2024-01-15T19:22:17;4.50;1.00
27870;DHT22;15225;50.730;4.244;2024-01-15T19:24:43;4.70;99.90
27870;DHT22;15225;50.730;4.244;2024-01-15T19:27:10;4.50;99.90
27870;DHT22;15225;50.730;4.244;2024-01-15T19:29:36;4.50;99.90
27870;DHT22;15225;50.730;4.244;2024-01-15T19:32:02;4.40;1.00
27870;DHT22;15225;50.730;4.244;2024-01-15T19:34:28;4.40;1.00
27870;DHT22;15225;50.730;4.244;2024-01-15T19:36:54;4.30;1.00
27870;DHT22;15225;50.730;4.244;2024-01-15T19:39:20;4.30;99.90
27870;DHT22;15225;50.730;4.244;2024-01-15T19:41:47;4.40;1.00
27870;DHT22;15225;50.730;4.244;2024-01-15T19:44:13;4.40;99.90
27870;DHT22;15225;50.730;4.244;2024-01-15T19:46:39;4.60;99.90
27870;DHT22;15225;50.730;4.244;2024-01-15T19:49:08;4.70;99.90
27870;DHT22;15225;50.730;4.244;2024-01-15T19:51:34;4.60;99.90
27870;DHT22;15225;50.730;4.244;2024-01-15T19:54:00;4.30;99.90
27870;DHT22;15225;50.730;4.244;2024-01-15T19:56:26;4.20;1.00
27870;DHT22;15225;50.730;4.244;2024-01-15T19:58:52;4.30;1.00
27870;DHT22;15225;50.730;4.244;2024-01-15T20:01:18;4.30;99.90
27870;DHT22;15225;50.730;4.244;2024-01-15T20:03:44;4.40;99.90
27870;DHT22;15225;50.730;4.244;2024-01-15T20:06:14;4.50;82.40
27870;DHT22;15225;50.730;4.244;2024-01-15T20:08:42;4.30;99.90
27870;DHT22;15225;50.730;4.244;2024-01-15T20:11:09;4.40;99.90
27870;DHT22;15225;50.730;4.244;2024-01-15T20:13:38;4.40;99.90
27870;DHT22;15225;50.730;4.244;2024-01-15T20:16:10;4.40;99.90
27870;DHT22;15225;50.730;4.244;2024-01-15T20:18:36;4.30;99.90
27870;DHT22;15225;50.730;4.244;2024-01-15T20:21:02;4.40;99.90
27870;DHT22;15225;50.730;4.244;2024-01-15T20:23:29;4.40;99.90
27870;DHT22;15225;50.730;4.244;2024-01-15T20:25:55;4.40;99.90
27870;DHT22;15225;50.730;4.244;2024-01-15T20:28:21;4.30;99.90
27870;DHT22;15225;50.730;4.244;2024-01-15T20:30:47;4.20;1.00
27870;DHT22;15225;50.730;4.244;2024-01-15T20:33:14;4.10;1.00
27870;DHT22;15225;50.730;4.244;2024-01-15T20:35:40;4.20;99.90
27870;DHT22;15225;50.730;4.244;2024-01-15T20:38:06;4.00;9.40
27870;DHT22;15225;50.730;4.244;2024-01-15T20:40:32;3.90;99.90
27870;DHT22;15225;50.730;4.244;2024-01-15T20:42:59;3.70;99.90
27870;DHT22;15225;50.730;4.244;2024-01-15T20:45:25;4.00;99.90
27870;DHT22;15225;50.730;4.244;2024-01-15T20:47:52;3.90;99.90
27870;DHT22;15225;50.730;4.244;2024-01-15T20:50:18;4.00;99.90
27870;DHT22;15225;50.730;4.244;2024-01-15T20:52:44;3.90;99.90
27870;DHT22;15225;50.730;4.244;2024-01-15T20:55:10;4.10;28.20
27870;DHT22;15225;50.730;4.244;2024-01-15T20:57:36;4.00;99.00
27870;DHT22;15225;50.730;4.244;2024-01-15T21:00:02;4.00;15.00
27870;DHT22;15225;50.730;4.244;2024-01-15T21:02:28;4.10;27.40
27870;DHT22;15225;50.730;4.244;2024-01-15T21:04:54;4.10;1.00
27870;DHT22;15225;50.730;4.244;2024-01-15T21:07:25;4.30;99.90
27870;DHT22;15225;50.730;4.244;2024-01-15T21:09:53;4.20;99.90
27870;DHT22;15225;50.730;4.244;2024-01-15T21:12:19;4.40;56.10
27870;DHT22;15225;50.730;4.244;2024-01-15T21:14:45;4.30;99.90
27870;DHT22;15225;50.730;4.244;2024-01-15T21:17:11;4.20;1.00
27870;DHT22;15225;50.730;4.244;2024-01-15T21:19:37;4.00;1.00
27870;DHT22;15225;50.730;4.244;2024-01-15T21:22:03;4.00;99.90
27870;DHT22;15225;50.730;4.244;2024-01-15T21:24:29;4.10;1.00
27870;DHT22;15225;50.730;4.244;2024-01-15T21:26:55;4.10;1.00
27870;DHT22;15225;50.730;4.244;2024-01-15T21:29:23;3.90;99.90
27870;DHT22;15225;50.730;4.244;2024-01-15T21:31:48;4.00;99.90
27870;DHT22;15225;50.730;4.244;2024-01-15T21:34:14;4.00;99.90
27870;DHT22;15225;50.730;4.244;2024-01-15T21:36:41;4.10;21.10
27870;DHT22;15225;50.730;4.244;2024-01-15T21:39:10;4.30;1.00
27870;DHT22;15225;50.730;4.244;2024-01-15T21:41:43;4.30;1.00
27870;DHT22;15225;50.730;4.244;2024-01-15T21:44:09;4.30;1.00
27870;DHT22;15225;50.730;4.244;2024-01-15T21:46:35;4.10;3.10
27870;DHT22;15225;50.730;4.244;2024-01-15T21:49:02;4.30;1.00
27870;DHT22;15225;50.730;4.244;2024-01-15T21:51:28;4.10;1.00
27870;DHT22;15225;50.730;4.244;2024-01-15T21:53:54;4.20;12.10
27870;DHT22;15225;50.730;4.244;2024-01-15T21:56:19;4.30;99.90
27870;DHT22;15225;50.730;4.244;2024-01-15T21:58:45;4.20;1.00
27870;DHT22;15225;50.730;4.244;2024-01-15T22:01:11;4.30;1.00
27870;DHT22;15225;50.730;4.244;2024-01-15T22:03:37;4.20;1.00
27870;DHT22;15225;50.730;4.244;2024-01-15T22:06:03;4.20;1.00
27870;DHT22;15225;50.730;4.244;2024-01-15T22:08:29;4.40;99.90
27870;DHT22;15225;50.730;4.244;2024-01-15T22:10:54;4.50;99.90
27870;DHT22;15225;50.730;4.244;2024-01-15T22:13:20;4.50;99.90
27870;DHT22;15225;50.730;4.244;2024-01-15T22:15:46;4.50;45.80
27870;DHT22;15225;50.730;4.244;2024-01-15T22:18:12;4.50;1.00
27870;DHT22;15225;50.730;4.244;2024-01-15T22:20:38;4.40;99.90
27870;DHT22;15225;50.730;4.244;2024-01-15T22:23:05;4.20;1.00
27870;DHT22;15225;50.730;4.244;2024-01-15T22:25:31;4.20;1.00
27870;DHT22;15225;50.730;4.244;2024-01-15T22:28:00;4.40;99.90
